sensor_id;sensor_type;location;lat;lon;timestamp;temperature;humidity
48515;DHT22;34309;47.260;2.796;2022-07-22T00:01:05;27.80;28.70
48515;DHT22;34309;47.260;2.796;2022-07-22T00:03:31;27.80;28.70
48515;DHT22;34309;47.260;2.796;2022-07-22T00:05:57;27.70;28.70
48515;DHT22;34309;47.260;2.796;2022-07-22T00:08:23;27.70;28.70
48515;DHT22;34309;47.260;2.796;2022-07-22T00:10:48;27.70;28.60
48515;DHT22;34309;47.260;2.796;2022-07-22T00:13:14;27.80;28.60
48515;DHT22;34309;47.260;2.796;2022-07-22T00:15:40;27.70;28.60
48515;DHT22;34309;47.260;2.796;2022-07-22T00:18:05;27.70;28.80
48515;DHT22;34309;47.260;2.796;2022-07-22T00:20:31;27.70;28.70
48515;DHT22;34309;47.260;2.796;2022-07-22T00:22:57;27.70;28.60
48515;DHT22;34309;47.260;2.796;2022-07-22T00:25:23;27.70;28.80
48515;DHT22;34309;47.260;2.796;2022-07-22T00:27:49;27.70;28.70
48515;DHT22;34309;47.260;2.796;2022-07-22T00:30:15;27.70;28.50
48515;DHT22;34309;47.260;2.796;2022-07-22T00:32:40;27.70;28.40
48515;DHT22;34309;47.260;2.796;2022-07-22T00:35:07;27.70;28.60
48515;DHT22;34309;47.260;2.796;2022-07-22T00:37:33;27.70;28.60
48515;DHT22;34309;47.260;2.796;2022-07-22T00:39:58;27.70;28.40
48515;DHT22;34309;47.260;2.796;2022-07-22T00:42:24;27.70;28.70
48515;DHT22;34309;47.260;2.796;2022-07-22T00:44:50;27.70;28.60
48515;DHT22;34309;47.260;2.796;2022-07-22T00:47:15;27.70;28.60
48515;DHT22;34309;47.260;2.796;2022-07-22T00:49:41;27.70;28.80
48515;DHT22;34309;47.260;2.796;2022-07-22T00:52:07;27.70;28.60
48515;DHT22;34309;47.260;2.796;2022-07-22T00:54:33;27.70;28.70
48515;DHT22;34309;47.260;2.796;2022-07-22T00:56:59;27.60;28.40
48515;DHT22;34309;47.260;2.796;2022-07-22T00:59:25;27.60;28.40
48515;DHT22;34309;47.260;2.796;2022-07-22T01:01:51;27.60;28.40
48515;DHT22;34309;47.260;2.796;2022-07-22T01:04:17;27.60;28.40
48515;DHT22;34309;47.260;2.796;2022-07-22T01:06:44;27.60;28.50
48515;DHT22;34309;47.260;2.796;2022-07-22T01:09:10;27.60;28.50
48515;DHT22;34309;47.260;2.796;2022-07-22T01:11:36;27.60;28.40
48515;DHT22;34309;47.260;2.796;2022-07-22T01:14:02;27.60;28.50
48515;DHT22;34309;47.260;2.796;2022-07-22T01:16:28;27.60;28.40
48515;DHT22;34309;47.260;2.796;2022-07-22T01:18:54;27.60;28.50
48515;DHT22;34309;47.260;2.796;2022-07-22T01:21:20;27.60;28.40
48515;DHT22;34309;47.260;2.796;2022-07-22T01:23:46;27.60;28.40
48515;DHT22;34309;47.260;2.796;2022-07-22T01:26:13;27.60;28.50
48515;DHT22;34309;47.260;2.796;2022-07-22T01:28:40;27.60;28.30
48515;DHT22;34309;47.260;2.796;2022-07-22T01:31:06;27.60;28.40
48515;DHT22;34309;47.260;2.796;2022-07-22T01:33:33;27.60;28.40
48515;DHT22;34309;47.260;2.796;2022-07-22T01:35:59;27.60;28.50
48515;DHT22;34309;47.260;2.796;2022-07-22T01:38:25;27.60;28.40
48515;DHT22;34309;47.260;2.796;2022-07-22T01:40:50;27.60;28.40
48515;DHT22;34309;47.260;2.796;2022-07-22T01:43:16;27.60;28.40
48515;DHT22;34309;47.260;2.796;2022-07-22T01:45:48;27.60;28.50
48515;DHT22;34309;47.260;2.796;2022-07-22T01:48:15;27.60;28.40
48515;DHT22;34309;47.260;2.796;2022-07-22T01:50:42;27.60;28.40
48515;DHT22;34309;47.260;2.796;2022-07-22T01:53:08;27.60;28.60
48515;DHT22;34309;47.260;2.796;2022-07-22T01:55:34;27.50;28.30
48515;DHT22;34309;47.260;2.796;2022-07-22T01:58:00;27.60;28.40
48515;DHT22;34309;47.260;2.796;2022-07-22T02:00:26;27.60;28.30
48515;DHT22;34309;47.260;2.796;2022-07-22T02:02:52;27.50;28.50
48515;DHT22;34309;47.260;2.796;2022-07-22T02:05:17;27.50;28.30
48515;DHT22;34309;47.260;2.796;2022-07-22T02:07:43;27.50;28.40
48515;DHT22;34309;47.260;2.796;2022-07-22T02:10:09;27.50;28.20
48515;DHT22;34309;47.260;2.796;2022-07-22T02:12:35;27.50;28.40
48515;DHT22;34309;47.260;2.796;2022-07-22T02:15:01;27.50;28.30
48515;DHT22;34309;47.260;2.796;2022-07-22T02:17:27;27.50;28.30
48515;DHT22;34309;47.260;2.796;2022-07-22T02:19:52;27.50;28.40
48515;DHT22;34309;47.260;2.796;2022-07-22T02:22:18;27.50;28.30
48515;DHT22;34309;47.260;2.796;2022-07-22T02:24:44;27.50;28.30
48515;DHT22;34309;47.260;2.796;2022-07-22T02:27:09;27.50;28.30
48515;DHT22;34309;47.260;2.796;2022-07-22T02:29:37;27.50;28.30
48515;DHT22;34309;47.260;2.796;2022-07-22T02:32:02;27.50;28.30
48515;DHT22;34309;47.260;2.796;2022-07-22T02:34:28;27.50;28.30
48515;DHT22;34309;47.260;2.796;2022-07-22T02:36:54;27.50;28.30
48515;DHT22;34309;47.260;2.796;2022-07-22T02:39:20;27.50;28.30
48515;DHT22;34309;47.260;2.796;2022-07-22T02:41:45;27.50;28.20
48515;DHT22;34309;47.260;2.796;2022-07-22T02:44:11;27.50;28.40
48515;DHT22;34309;47.260;2.796;2022-07-22T02:46:37;27.50;28.40
48515;DHT22;34309;47.260;2.796;2022-07-22T02:49:03;27.40;28.30
48515;DHT22;34309;47.260;2.796;2022-07-22T02:51:29;27.40;28.20
48515;DHT22;34309;47.260;2.796;2022-07-22T02:53:55;27.50;28.30
48515;DHT22;34309;47.260;2.796;2022-07-22T02:56:22;27.40;28.30
48515;DHT22;34309;47.260;2.796;2022-07-22T02:58:47;27.50;28.40
48515;DHT22;34309;47.260;2.796;2022-07-22T03:01:17;27.40;28.30
48515;DHT22;34309;47.260;2.796;2022-07-22T03:03:44;27.40;28.20
48515;DHT22;34309;47.260;2.796;2022-07-22T03:06:10;27.40;28.30
48515;DHT22;34309;47.260;2.796;2022-07-22T03:08:36;27.40;28.10
48515;DHT22;34309;47.260;2.796;2022-07-22T03:11:02;27.40;28.30
48515;DHT22;34309;47.260;2.796;2022-07-22T03:13:28;27.40;28.30
48515;DHT22;34309;47.260;2.796;2022-07-22T03:15:54;27.40;28.20
48515;DHT22;34309;47.260;2.796;2022-07-22T03:18:20;27.40;28.30
48515;DHT22;34309;47.260;2.796;2022-07-22T03:20:45;27.40;28.30
48515;DHT22;34309;47.260;2.796;2022-07-22T03:23:11;27.40;28.20
48515;DHT22;34309;47.260;2.796;2022-07-22T03:25:37;27.40;28.30
48515;DHT22;34309;47.260;2.796;2022-07-22T03:28:04;27.40;28.10
48515;DHT22;34309;47.260;2.796;2022-07-22T03:30:30;27.40;28.20
48515;DHT22;34309;47.260;2.796;2022-07-22T03:32:56;27.40;28.20
48515;DHT22;34309;47.260;2.796;2022-07-22T03:35:21;27.40;28.20
48515;DHT22;34309;47.260;2.796;2022-07-22T03:37:47;27.30;28.20
48515;DHT22;34309;47.260;2.796;2022-07-22T03:40:13;27.40;28.30
48515;DHT22;34309;47.260;2.796;2022-07-22T03:42:39;27.30;28.30
48515;DHT22;34309;47.260;2.796;2022-07-22T03:45:05;27.40;28.20
48515;DHT22;34309;47.260;2.796;2022-07-22T03:47:31;27.30;28.20
48515;DHT22;34309;47.260;2.796;2022-07-22T03:49:56;27.30;28.10
48515;DHT22;34309;47.260;2.796;2022-07-22T03:52:26;27.30;28.70
48515;DHT22;34309;47.260;2.796;2022-07-22T03:54:51;27.30;28.20
48515;DHT22;34309;47.260;2.796;2022-07-22T03:57:17;27.30;28.40
48515;DHT22;34309;47.260;2.796;2022-07-22T03:59:43;27.30;28.20
48515;DHT22;34309;47.260;2.796;2022-07-22T04:02:09;27.30;28.20
48515;DHT22;34309;47.260;2.796;2022-07-22T04:04:34;27.30;28.20
48515;DHT22;34309;47.260;2.796;2022-07-22T04:07:00;27.30;28.20
48515;DHT22;34309;47.260;2.796;2022-07-22T04:09:26;27.30;28.20
48515;DHT22;34309;47.260;2.796;2022-07-22T04:11:51;27.30;28.20
48515;DHT22;34309;47.260;2.796;2022-07-22T04:14:18;27.30;28.30
48515;DHT22;34309;47.260;2.796;2022-07-22T04:16:44;27.30;28.00
48515;DHT22;34309;47.260;2.796;2022-07-22T04:19:10;27.30;28.20
48515;DHT22;34309;47.260;2.796;2022-07-22T04:21:36;27.30;28.30
48515;DHT22;34309;47.260;2.796;2022-07-22T04:24:03;27.30;28.10
48515;DHT22;34309;47.260;2.796;2022-07-22T04:26:29;27.30;28.10
48515;DHT22;34309;47.260;2.796;2022-07-22T04:28:55;27.20;28.00
48515;DHT22;34309;47.260;2.796;2022-07-22T04:31:20;27.20;28.10
48515;DHT22;34309;47.260;2.796;2022-07-22T04:33:46;27.20;28.00
48515;DHT22;34309;47.260;2.796;2022-07-22T04:36:12;27.20;28.00
48515;DHT22;34309;47.260;2.796;2022-07-22T04:38:37;27.20;27.80
48515;DHT22;34309;47.260;2.796;2022-07-22T04:41:03;27.20;28.10
48515;DHT22;34309;47.260;2.796;2022-07-22T04:43:29;27.20;28.20
48515;DHT22;34309;47.260;2.796;2022-07-22T04:45:55;27.20;28.20
48515;DHT22;34309;47.260;2.796;2022-07-22T04:48:21;27.20;28.00
48515;DHT22;34309;47.260;2.796;2022-07-22T04:50:47;27.20;28.20
48515;DHT22;34309;47.260;2.796;2022-07-22T04:53:13;27.20;27.90
48515;DHT22;34309;47.260;2.796;2022-07-22T04:55:39;27.20;28.00
48515;DHT22;34309;47.260;2.796;2022-07-22T04:58:05;27.20;28.20
48515;DHT22;34309;47.260;2.796;2022-07-22T05:00:31;27.20;28.10
48515;DHT22;34309;47.260;2.796;2022-07-22T05:02:56;27.20;27.90
48515;DHT22;34309;47.260;2.796;2022-07-22T05:05:24;27.20;28.70
48515;DHT22;34309;47.260;2.796;2022-07-22T05:07:49;27.20;28.00
48515;DHT22;34309;47.260;2.796;2022-07-22T05:10:15;27.10;27.90
48515;DHT22;34309;47.260;2.796;2022-07-22T05:12:41;27.10;27.90
48515;DHT22;34309;47.260;2.796;2022-07-22T05:15:07;27.10;28.00
48515;DHT22;34309;47.260;2.796;2022-07-22T05:17:33;27.10;28.10
48515;DHT22;34309;47.260;2.796;2022-07-22T05:20:02;27.10;27.90
48515;DHT22;34309;47.260;2.796;2022-07-22T05:22:28;27.10;28.10
48515;DHT22;34309;47.260;2.796;2022-07-22T05:24:54;27.10;28.00
48515;DHT22;34309;47.260;2.796;2022-07-22T05:27:20;27.10;28.00
48515;DHT22;34309;47.260;2.796;2022-07-22T05:29:45;27.10;28.10
48515;DHT22;34309;47.260;2.796;2022-07-22T05:32:11;27.10;28.10
48515;DHT22;34309;47.260;2.796;2022-07-22T05:34:37;27.10;28.10
48515;DHT22;34309;47.260;2.796;2022-07-22T05:37:02;27.10;28.20
48515;DHT22;34309;47.260;2.796;2022-07-22T05:39:28;27.10;27.90
48515;DHT22;34309;47.260;2.796;2022-07-22T05:41:54;27.10;28.10
48515;DHT22;34309;47.260;2.796;2022-07-22T05:44:20;27.10;28.20
48515;DHT22;34309;47.260;2.796;2022-07-22T05:46:45;27.10;28.10
48515;DHT22;34309;47.260;2.796;2022-07-22T05:49:11;27.10;28.10
48515;DHT22;34309;47.260;2.796;2022-07-22T05:51:36;27.10;28.20
48515;DHT22;34309;47.260;2.796;2022-07-22T05:54:02;27.10;28.10
48515;DHT22;34309;47.260;2.796;2022-07-22T05:56:29;27.10;28.10
48515;DHT22;34309;47.260;2.796;2022-07-22T05:58:55;27.10;28.10
48515;DHT22;34309;47.260;2.796;2022-07-22T06:01:22;27.10;28.10
48515;DHT22;34309;47.260;2.796;2022-07-22T06:03:48;27.10;28.20
48515;DHT22;34309;47.260;2.796;2022-07-22T06:06:14;27.10;28.10
48515;DHT22;34309;47.260;2.796;2022-07-22T06:08:39;27.10;28.10
48515;DHT22;34309;47.260;2.796;2022-07-22T06:11:05;27.10;28.20
48515;DHT22;34309;47.260;2.796;2022-07-22T06:13:31;27.10;28.10
48515;DHT22;34309;47.260;2.796;2022-07-22T06:15:58;27.10;28.10
48515;DHT22;34309;47.260;2.796;2022-07-22T06:18:23;27.10;28.10
48515;DHT22;34309;47.260;2.796;2022-07-22T06:20:49;27.10;28.10
48515;DHT22;34309;47.260;2.796;2022-07-22T06:23:15;27.10;28.20
48515;DHT22;34309;47.260;2.796;2022-07-22T06:25:41;27.10;28.20
48515;DHT22;34309;47.260;2.796;2022-07-22T06:28:07;27.00;28.10
48515;DHT22;34309;47.260;2.796;2022-07-22T06:30:33;27.10;28.10
48515;DHT22;34309;47.260;2.796;2022-07-22T06:32:59;27.10;28.20
48515;DHT22;34309;47.260;2.796;2022-07-22T06:35:25;27.00;28.20
48515;DHT22;34309;47.260;2.796;2022-07-22T06:37:52;27.00;28.10
48515;DHT22;34309;47.260;2.796;2022-07-22T06:40:17;27.00;28.20
48515;DHT22;34309;47.260;2.796;2022-07-22T06:42:43;27.10;28.40
48515;DHT22;34309;47.260;2.796;2022-07-22T06:45:09;27.00;28.30
48515;DHT22;34309;47.260;2.796;2022-07-22T06:47:35;27.00;28.40
48515;DHT22;34309;47.260;2.796;2022-07-22T06:50:05;27.00;28.40
48515;DHT22;34309;47.260;2.796;2022-07-22T06:52:31;27.00;28.50
48515;DHT22;34309;47.260;2.796;2022-07-22T06:54:57;27.00;28.20
48515;DHT22;34309;47.260;2.796;2022-07-22T06:57:22;27.00;28.20
48515;DHT22;34309;47.260;2.796;2022-07-22T06:59:49;27.00;28.20
48515;DHT22;34309;47.260;2.796;2022-07-22T07:02:15;27.00;28.20
48515;DHT22;34309;47.260;2.796;2022-07-22T07:04:41;27.00;28.50
48515;DHT22;34309;47.260;2.796;2022-07-22T07:07:08;27.00;28.30
48515;DHT22;34309;47.260;2.796;2022-07-22T07:09:34;27.00;28.50
48515;DHT22;34309;47.260;2.796;2022-07-22T07:12:00;27.00;28.60
48515;DHT22;34309;47.260;2.796;2022-07-22T07:14:25;27.00;28.50
48515;DHT22;34309;47.260;2.796;2022-07-22T07:16:51;27.00;28.40
48515;DHT22;34309;47.260;2.796;2022-07-22T07:19:17;27.00;29.10
48515;DHT22;34309;47.260;2.796;2022-07-22T07:21:45;27.00;28.50
48515;DHT22;34309;47.260;2.796;2022-07-22T07:24:11;27.00;28.50
48515;DHT22;34309;47.260;2.796;2022-07-22T07:26:37;27.00;28.30
48515;DHT22;34309;47.260;2.796;2022-07-22T07:29:03;27.00;28.40
48515;DHT22;34309;47.260;2.796;2022-07-22T07:31:30;27.00;28.40
48515;DHT22;34309;47.260;2.796;2022-07-22T07:33:56;27.00;28.40
48515;DHT22;34309;47.260;2.796;2022-07-22T07:36:22;27.00;28.40
48515;DHT22;34309;47.260;2.796;2022-07-22T07:38:48;27.00;28.40
48515;DHT22;34309;47.260;2.796;2022-07-22T07:41:14;27.00;28.30
48515;DHT22;34309;47.260;2.796;2022-07-22T07:43:40;27.00;28.30
48515;DHT22;34309;47.260;2.796;2022-07-22T07:46:05;27.00;28.40
48515;DHT22;34309;47.260;2.796;2022-07-22T07:48:31;27.00;28.40
48515;DHT22;34309;47.260;2.796;2022-07-22T07:50:57;27.00;28.30
48515;DHT22;34309;47.260;2.796;2022-07-22T07:53:23;27.00;28.70
48515;DHT22;34309;47.260;2.796;2022-07-22T07:55:49;27.00;28.40
48515;DHT22;34309;47.260;2.796;2022-07-22T07:58:15;27.00;28.50
48515;DHT22;34309;47.260;2.796;2022-07-22T08:00:41;27.10;28.40
48515;DHT22;34309;47.260;2.796;2022-07-22T08:03:08;27.00;28.40
48515;DHT22;34309;47.260;2.796;2022-07-22T08:05:34;27.00;28.30
48515;DHT22;34309;47.260;2.796;2022-07-22T08:08:00;27.00;28.50
48515;DHT22;34309;47.260;2.796;2022-07-22T08:10:26;27.10;28.80
48515;DHT22;34309;47.260;2.796;2022-07-22T08:12:52;27.10;28.70
48515;DHT22;34309;47.260;2.796;2022-07-22T08:15:19;27.10;28.60
48515;DHT22;34309;47.260;2.796;2022-07-22T08:17:45;27.10;28.60
48515;DHT22;34309;47.260;2.796;2022-07-22T08:20:12;27.00;28.70
48515;DHT22;34309;47.260;2.796;2022-07-22T08:22:37;27.00;28.70
48515;DHT22;34309;47.260;2.796;2022-07-22T08:25:04;27.10;28.80
48515;DHT22;34309;47.260;2.796;2022-07-22T08:27:30;27.10;28.70
48515;DHT22;34309;47.260;2.796;2022-07-22T08:29:55;27.10;28.70
48515;DHT22;34309;47.260;2.796;2022-07-22T08:32:21;27.10;28.60
48515;DHT22;34309;47.260;2.796;2022-07-22T08:34:47;27.10;28.60
48515;DHT22;34309;47.260;2.796;2022-07-22T08:37:13;27.10;28.80
48515;DHT22;34309;47.260;2.796;2022-07-22T08:39:39;27.10;28.70
48515;DHT22;34309;47.260;2.796;2022-07-22T08:42:04;27.10;28.70
48515;DHT22;34309;47.260;2.796;2022-07-22T08:44:31;27.10;28.70
48515;DHT22;34309;47.260;2.796;2022-07-22T08:46:58;27.10;28.70
48515;DHT22;34309;47.260;2.796;2022-07-22T08:49:24;27.10;28.70
48515;DHT22;34309;47.260;2.796;2022-07-22T08:51:50;27.10;28.70
48515;DHT22;34309;47.260;2.796;2022-07-22T08:54:15;27.10;28.80
48515;DHT22;34309;47.260;2.796;2022-07-22T08:56:41;27.10;28.80
48515;DHT22;34309;47.260;2.796;2022-07-22T08:59:08;27.10;28.80
48515;DHT22;34309;47.260;2.796;2022-07-22T09:01:34;27.10;28.80
48515;DHT22;34309;47.260;2.796;2022-07-22T09:04:00;27.10;28.80
48515;DHT22;34309;47.260;2.796;2022-07-22T09:06:27;27.10;28.90
48515;DHT22;34309;47.260;2.796;2022-07-22T09:09:04;27.10;28.80
48515;DHT22;34309;47.260;2.796;2022-07-22T09:11:30;27.10;28.90
48515;DHT22;34309;47.260;2.796;2022-07-22T09:14:00;27.10;28.90
48515;DHT22;34309;47.260;2.796;2022-07-22T09:16:42;27.10;28.80
48515;DHT22;34309;47.260;2.796;2022-07-22T09:19:08;27.10;28.90
48515;DHT22;34309;47.260;2.796;2022-07-22T09:21:36;27.10;28.90
48515;DHT22;34309;47.260;2.796;2022-07-22T09:24:06;27.10;28.80
48515;DHT22;34309;47.260;2.796;2022-07-22T09:26:37;27.10;28.80
48515;DHT22;34309;47.260;2.796;2022-07-22T09:29:04;27.10;28.90
48515;DHT22;34309;47.260;2.796;2022-07-22T09:31:35;27.10;28.80
48515;DHT22;34309;47.260;2.796;2022-07-22T09:34:02;27.10;28.80
48515;DHT22;34309;47.260;2.796;2022-07-22T09:36:29;27.10;28.80
48515;DHT22;34309;47.260;2.796;2022-07-22T09:38:55;27.10;29.00
48515;DHT22;34309;47.260;2.796;2022-07-22T09:41:21;27.10;28.90
48515;DHT22;34309;47.260;2.796;2022-07-22T09:43:47;27.10;28.90
48515;DHT22;34309;47.260;2.796;2022-07-22T09:46:13;27.10;28.90
48515;DHT22;34309;47.260;2.796;2022-07-22T09:48:40;27.10;29.00
48515;DHT22;34309;47.260;2.796;2022-07-22T09:51:06;27.10;29.00
48515;DHT22;34309;47.260;2.796;2022-07-22T09:53:33;27.10;28.90
48515;DHT22;34309;47.260;2.796;2022-07-22T09:56:00;27.10;28.90
48515;DHT22;34309;47.260;2.796;2022-07-22T09:58:27;27.10;29.00
48515;DHT22;34309;47.260;2.796;2022-07-22T10:00:54;27.10;29.00
48515;DHT22;34309;47.260;2.796;2022-07-22T10:03:34;27.10;29.00
48515;DHT22;34309;47.260;2.796;2022-07-22T10:06:03;27.10;29.00
48515;DHT22;34309;47.260;2.796;2022-07-22T10:08:31;27.10;28.90
48515;DHT22;34309;47.260;2.796;2022-07-22T10:11:03;27.10;29.10
48515;DHT22;34309;47.260;2.796;2022-07-22T10:13:29;27.10;29.00
48515;DHT22;34309;47.260;2.796;2022-07-22T10:15:56;27.10;28.90
48515;DHT22;34309;47.260;2.796;2022-07-22T10:18:23;27.20;29.00
48515;DHT22;34309;47.260;2.796;2022-07-22T10:21:01;27.10;29.10
48515;DHT22;34309;47.260;2.796;2022-07-22T10:23:26;27.20;29.20
48515;DHT22;34309;47.260;2.796;2022-07-22T10:25:56;27.20;29.10
48515;DHT22;34309;47.260;2.796;2022-07-22T10:28:37;27.10;29.20
48515;DHT22;34309;47.260;2.796;2022-07-22T10:33:45;27.20;29.10
48515;DHT22;34309;47.260;2.796;2022-07-22T10:36:12;27.20;29.10
48515;DHT22;34309;47.260;2.796;2022-07-22T10:39:07;27.20;29.00
48515;DHT22;34309;47.260;2.796;2022-07-22T10:41:34;27.20;29.10
48515;DHT22;34309;47.260;2.796;2022-07-22T10:44:00;27.20;29.20
48515;DHT22;34309;47.260;2.796;2022-07-22T10:46:50;27.20;29.20
48515;DHT22;34309;47.260;2.796;2022-07-22T10:49:18;27.20;29.10
48515;DHT22;34309;47.260;2.796;2022-07-22T10:54:32;27.20;29.10
48515;DHT22;34309;47.260;2.796;2022-07-22T10:56:59;27.20;29.00
48515;DHT22;34309;47.260;2.796;2022-07-22T10:59:25;27.20;29.20
48515;DHT22;34309;47.260;2.796;2022-07-22T11:01:52;27.20;29.10
48515;DHT22;34309;47.260;2.796;2022-07-22T11:04:22;27.20;29.10
48515;DHT22;34309;47.260;2.796;2022-07-22T11:06:55;27.20;29.60
48515;DHT22;34309;47.260;2.796;2022-07-22T11:09:23;27.20;29.30
48515;DHT22;34309;47.260;2.796;2022-07-22T11:11:56;27.20;29.20
48515;DHT22;34309;47.260;2.796;2022-07-22T11:14:31;27.20;29.10
48515;DHT22;34309;47.260;2.796;2022-07-22T11:17:00;27.20;29.20
48515;DHT22;34309;47.260;2.796;2022-07-22T11:19:30;27.20;29.10
48515;DHT22;34309;47.260;2.796;2022-07-22T11:22:00;27.20;29.30
48515;DHT22;34309;47.260;2.796;2022-07-22T11:24:29;27.20;29.20
48515;DHT22;34309;47.260;2.796;2022-07-22T11:26:56;27.20;29.30
48515;DHT22;34309;47.260;2.796;2022-07-22T11:29:30;27.20;29.40
48515;DHT22;34309;47.260;2.796;2022-07-22T11:32:00;27.20;29.50
48515;DHT22;34309;47.260;2.796;2022-07-22T11:34:27;27.20;29.70
48515;DHT22;34309;47.260;2.796;2022-07-22T11:36:54;27.30;29.40
48515;DHT22;34309;47.260;2.796;2022-07-22T11:39:22;27.20;29.60
48515;DHT22;34309;47.260;2.796;2022-07-22T11:41:49;27.20;29.30
48515;DHT22;34309;47.260;2.796;2022-07-22T11:44:24;27.30;29.50
48515;DHT22;34309;47.260;2.796;2022-07-22T11:46:51;27.20;29.60
48515;DHT22;34309;47.260;2.796;2022-07-22T11:49:21;27.30;29.50
48515;DHT22;34309;47.260;2.796;2022-07-22T11:51:47;27.20;29.40
48515;DHT22;34309;47.260;2.796;2022-07-22T11:54:14;27.30;29.50
48515;DHT22;34309;47.260;2.796;2022-07-22T11:56:40;27.30;29.20
48515;DHT22;34309;47.260;2.796;2022-07-22T11:59:07;27.30;29.30
48515;DHT22;34309;47.260;2.796;2022-07-22T12:01:36;27.30;29.30
48515;DHT22;34309;47.260;2.796;2022-07-22T12:04:05;27.30;29.30
48515;DHT22;34309;47.260;2.796;2022-07-22T12:06:33;27.30;29.40
48515;DHT22;34309;47.260;2.796;2022-07-22T12:09:10;27.30;29.30
48515;DHT22;34309;47.260;2.796;2022-07-22T12:11:42;27.30;29.20
48515;DHT22;34309;47.260;2.796;2022-07-22T12:14:11;27.30;29.20
48515;DHT22;34309;47.260;2.796;2022-07-22T12:16:38;27.30;29.60
48515;DHT22;34309;47.260;2.796;2022-07-22T12:19:05;27.30;29.40
48515;DHT22;34309;47.260;2.796;2022-07-22T12:21:34;27.30;29.50
48515;DHT22;34309;47.260;2.796;2022-07-22T12:24:02;27.30;29.40
48515;DHT22;34309;47.260;2.796;2022-07-22T12:29:21;27.30;29.40
48515;DHT22;34309;47.260;2.796;2022-07-22T12:31:51;27.30;29.70
48515;DHT22;34309;47.260;2.796;2022-07-22T12:34:27;27.30;29.70
48515;DHT22;34309;47.260;2.796;2022-07-22T12:36:54;27.30;29.30
48515;DHT22;34309;47.260;2.796;2022-07-22T12:39:20;27.30;29.40
48515;DHT22;34309;47.260;2.796;2022-07-22T12:41:55;27.30;29.50
48515;DHT22;34309;47.260;2.796;2022-07-22T12:44:26;27.30;29.60
48515;DHT22;34309;47.260;2.796;2022-07-22T12:46:55;27.30;29.60
48515;DHT22;34309;47.260;2.796;2022-07-22T12:49:24;27.30;29.70
48515;DHT22;34309;47.260;2.796;2022-07-22T12:52:06;27.30;29.50
48515;DHT22;34309;47.260;2.796;2022-07-22T12:54:33;27.30;29.70
48515;DHT22;34309;47.260;2.796;2022-07-22T12:56:59;27.30;29.50
48515;DHT22;34309;47.260;2.796;2022-07-22T12:59:25;27.30;29.70
48515;DHT22;34309;47.260;2.796;2022-07-22T13:01:51;27.30;29.70
48515;DHT22;34309;47.260;2.796;2022-07-22T13:04:17;27.30;29.70
48515;DHT22;34309;47.260;2.796;2022-07-22T13:06:42;27.30;29.80
48515;DHT22;34309;47.260;2.796;2022-07-22T13:09:08;27.30;29.80
48515;DHT22;34309;47.260;2.796;2022-07-22T13:11:34;27.30;29.80
48515;DHT22;34309;47.260;2.796;2022-07-22T13:14:05;27.30;29.70
48515;DHT22;34309;47.260;2.796;2022-07-22T13:16:32;27.30;29.70
48515;DHT22;34309;47.260;2.796;2022-07-22T13:18:58;27.30;29.80
48515;DHT22;34309;47.260;2.796;2022-07-22T13:21:24;27.30;29.80
48515;DHT22;34309;47.260;2.796;2022-07-22T13:23:49;27.40;29.80
48515;DHT22;34309;47.260;2.796;2022-07-22T13:26:15;27.30;29.80
48515;DHT22;34309;47.260;2.796;2022-07-22T13:28:41;27.30;29.70
48515;DHT22;34309;47.260;2.796;2022-07-22T13:31:08;27.30;29.70
48515;DHT22;34309;47.260;2.796;2022-07-22T13:33:34;27.30;29.70
48515;DHT22;34309;47.260;2.796;2022-07-22T13:36:00;27.40;29.80
48515;DHT22;34309;47.260;2.796;2022-07-22T13:38:26;27.30;29.70
48515;DHT22;34309;47.260;2.796;2022-07-22T13:40:52;27.40;29.80
48515;DHT22;34309;47.260;2.796;2022-07-22T13:43:22;27.40;29.80
48515;DHT22;34309;47.260;2.796;2022-07-22T13:45:49;27.40;29.80
48515;DHT22;34309;47.260;2.796;2022-07-22T13:48:16;27.40;29.80
48515;DHT22;34309;47.260;2.796;2022-07-22T13:50:44;27.40;29.80
48515;DHT22;34309;47.260;2.796;2022-07-22T13:53:10;27.40;29.80
48515;DHT22;34309;47.260;2.796;2022-07-22T13:55:38;27.40;29.80
48515;DHT22;34309;47.260;2.796;2022-07-22T13:58:04;27.40;29.80
48515;DHT22;34309;47.260;2.796;2022-07-22T14:00:30;27.40;29.80
48515;DHT22;34309;47.260;2.796;2022-07-22T14:02:56;27.40;29.80
48515;DHT22;34309;47.260;2.796;2022-07-22T14:05:22;27.40;29.80
48515;DHT22;34309;47.260;2.796;2022-07-22T14:07:49;27.40;29.80
48515;DHT22;34309;47.260;2.796;2022-07-22T14:10:15;27.40;29.80
48515;DHT22;34309;47.260;2.796;2022-07-22T14:12:41;27.40;29.80
48515;DHT22;34309;47.260;2.796;2022-07-22T14:15:08;27.40;29.80
48515;DHT22;34309;47.260;2.796;2022-07-22T14:17:34;27.40;30.00
48515;DHT22;34309;47.260;2.796;2022-07-22T14:20:00;27.40;29.80
48515;DHT22;34309;47.260;2.796;2022-07-22T14:22:26;27.40;29.80
48515;DHT22;34309;47.260;2.796;2022-07-22T14:24:52;27.40;29.80
48515;DHT22;34309;47.260;2.796;2022-07-22T14:27:17;27.40;29.80
48515;DHT22;34309;47.260;2.796;2022-07-22T14:29:43;27.40;29.80
48515;DHT22;34309;47.260;2.796;2022-07-22T14:32:09;27.40;29.80
48515;DHT22;34309;47.260;2.796;2022-07-22T14:34:35;27.40;29.80
48515;DHT22;34309;47.260;2.796;2022-07-22T14:37:01;27.40;29.80
48515;DHT22;34309;47.260;2.796;2022-07-22T14:39:26;27.40;29.80
48515;DHT22;34309;47.260;2.796;2022-07-22T14:41:52;27.40;29.80
48515;DHT22;34309;47.260;2.796;2022-07-22T14:44:18;27.40;29.80
48515;DHT22;34309;47.260;2.796;2022-07-22T14:46:44;27.40;29.80
48515;DHT22;34309;47.260;2.796;2022-07-22T14:49:09;27.40;29.80
48515;DHT22;34309;47.260;2.796;2022-07-22T14:51:35;27.40;29.80
48515;DHT22;34309;47.260;2.796;2022-07-22T14:54:01;27.40;29.80
48515;DHT22;34309;47.260;2.796;2022-07-22T14:56:28;27.40;29.80
48515;DHT22;34309;47.260;2.796;2022-07-22T14:58:53;27.40;29.80
48515;DHT22;34309;47.260;2.796;2022-07-22T15:01:19;27.40;29.80
48515;DHT22;34309;47.260;2.796;2022-07-22T15:03:45;27.40;29.80
48515;DHT22;34309;47.260;2.796;2022-07-22T15:06:10;27.40;29.90
48515;DHT22;34309;47.260;2.796;2022-07-22T15:08:37;27.40;29.80
48515;DHT22;34309;47.260;2.796;2022-07-22T15:11:02;27.40;29.80
48515;DHT22;34309;47.260;2.796;2022-07-22T15:13:29;27.40;29.80
48515;DHT22;34309;47.260;2.796;2022-07-22T15:15:55;27.40;29.80
48515;DHT22;34309;47.260;2.796;2022-07-22T15:18:22;27.40;29.80
48515;DHT22;34309;47.260;2.796;2022-07-22T15:20:48;27.40;29.90
48515;DHT22;34309;47.260;2.796;2022-07-22T15:23:14;27.40;29.80
48515;DHT22;34309;47.260;2.796;2022-07-22T15:25:40;27.40;30.70
48515;DHT22;34309;47.260;2.796;2022-07-22T15:28:06;27.50;30.00
48515;DHT22;34309;47.260;2.796;2022-07-22T15:30:32;27.40;30.00
48515;DHT22;34309;47.260;2.796;2022-07-22T15:32:58;27.40;29.90
48515;DHT22;34309;47.260;2.796;2022-07-22T15:35:24;27.50;30.20